Time;durP1;ratioP1;P1;durP2;ratioP2;P2;SDS_P1;SDS_P2;PMS_P1;PMS_P2;Temp;Humidity;BMP_temperature;BMP_pressure;BME280_temperature;BME280_humidity;BME280_pressure;Samples;Min_cycle;Max_cycle;Signal;HPM_P1;HPM_P2
2023/07/26 00:02:13;;;;;;;6.13;4.17;;;;;;;16.10;78.09;100063.69;5031248;28;20214;-73
2023/07/26 00:04:42;;;;;;;7.97;4.50;;;;;;;16.11;78.23;100069.81;5031843;28;20658;-73
2023/07/26 00:07:08;;;;;;;5.77;4.33;;;;;;;16.11;78.42;100070.56;5030044;28;20813;-73
2023/07/26 00:09:36;;;;;;;5.33;4.30;;;;;;;16.12;78.59;100063.34;5032633;28;20231;-73
2023/07/26 00:12:03;;;;;;;6.43;4.60;;;;;;;16.11;78.84;100070.56;5029326;28;20268;-73
2023/07/26 00:14:30;;;;;;;6.13;4.50;;;;;;;16.11;78.85;100072.47;5046486;28;20219;-73
2023/07/26 00:16:56;;;;;;;5.10;4.57;;;;;;;16.10;78.79;100079.69;5032958;28;20215;-71
2023/07/26 00:19:23;;;;;;;5.60;4.83;;;;;;;16.11;78.51;100072.47;5039409;28;20212;-72
2023/07/26 00:21:49;;;;;;;6.07;4.77;;;;;;;16.11;78.68;100077.78;5038327;28;20249;-71
2023/07/26 00:24:18;;;;;;;5.83;5.00;;;;;;;16.10;78.46;100076.28;5036387;28;20226;-70
2023/07/26 00:26:46;;;;;;;8.07;4.80;;;;;;;16.08;78.61;100075.88;5035328;28;20214;-73
2023/07/26 00:29:13;;;;;;;5.97;4.63;;;;;;;16.08;78.53;100071.31;5058469;28;20235;-73
2023/07/26 00:31:39;;;;;;;6.10;4.53;;;;;;;16.08;78.45;100081.19;5032417;28;21101;-73
2023/07/26 00:34:05;;;;;;;6.53;4.80;;;;;;;16.07;78.43;100077.00;5029640;28;20225;-73
2023/07/26 00:36:34;;;;;;;7.33;5.00;;;;;;;16.06;78.52;100083.47;5020276;28;21037;-73
2023/07/26 00:39:00;;;;;;;4.73;4.20;;;;;;;16.05;78.45;100087.28;5018807;28;20697;-73
2023/07/26 00:41:27;;;;;;;4.97;3.97;;;;;;;16.03;78.16;100086.88;5025310;28;20695;-73
2023/07/26 00:43:54;;;;;;;5.27;4.20;;;;;;;16.00;78.30;100083.06;5021558;28;20261;-73
2023/07/26 00:46:21;;;;;;;6.20;3.90;;;;;;;16.01;78.18;100094.47;5028073;28;20282;-72
2023/07/26 00:48:48;;;;;;;6.07;4.40;;;;;;;15.99;78.43;100091.44;5033630;28;20208;-73
2023/07/26 00:51:17;;;;;;;6.23;4.50;;;;;;;15.96;77.90;100089.50;5044029;28;20246;-70
2023/07/26 00:53:44;;;;;;;5.83;4.33;;;;;;;15.96;77.96;100100.16;5034437;28;20205;-70
2023/07/26 00:56:10;;;;;;;7.23;4.33;;;;;;;15.94;77.99;100099.78;5034377;28;20280;-73
2023/07/26 00:58:38;;;;;;;5.80;4.30;;;;;;;15.93;78.15;100093.69;5039936;28;20203;-72
2023/07/26 01:01:05;;;;;;;6.50;4.80;;;;;;;15.90;78.09;100093.66;5036120;28;20226;-73
2023/07/26 01:03:32;;;;;;;6.40;4.60;;;;;;;15.87;77.89;100102.38;5034502;28;20306;-72
2023/07/26 01:06:09;;;;;;;8.80;4.33;;;;;;;15.85;77.90;100086.03;5028430;28;20763;-71
2023/07/26 01:08:44;;;;;;;4.77;3.87;;;;;;;15.84;77.95;100082.59;5034523;28;20326;-71
2023/07/26 01:11:16;;;;;;;5.07;4.30;;;;;;;15.83;78.10;100088.31;5050245;28;20238;-72
2023/07/26 01:13:49;;;;;;;7.00;4.47;;;;;;;15.79;78.13;100088.25;5031477;28;20207;-74
2023/07/26 01:16:19;;;;;;;4.87;4.10;;;;;;;15.77;77.87;100092.44;5056222;28;20231;-70
2023/07/26 01:18:45;;;;;;;4.93;3.77;;;;;;;15.75;77.79;100087.50;5041281;28;20207;-71
2023/07/26 01:21:12;;;;;;;6.77;3.57;;;;;;;15.73;78.24;100078.34;5039918;28;20295;-71
2023/07/26 01:23:40;;;;;;;6.13;3.90;;;;;;;15.74;77.73;100079.88;5058182;28;20793;-72
2023/07/26 01:26:06;;;;;;;5.60;4.10;;;;;;;15.72;78.14;100080.25;5035005;28;20944;-72
2023/07/26 01:28:33;;;;;;;5.07;3.80;;;;;;;15.71;78.35;100081.38;5027968;28;21553;-72
2023/07/26 01:31:01;;;;;;;6.90;4.33;;;;;;;15.69;78.02;100082.88;5042475;28;20223;-71
2023/07/26 01:33:32;;;;;;;5.60;3.63;;;;;;;15.67;77.83;100077.94;5027803;28;20199;-72
2023/07/26 01:36:00;;;;;;;5.60;3.87;;;;;;;15.66;77.92;100096.94;5042861;28;20207;-72
2023/07/26 01:38:29;;;;;;;6.37;3.93;;;;;;;15.64;77.85;100096.53;5030217;28;20191;-72
2023/07/26 01:40:58;;;;;;;5.20;3.90;;;;;;;15.62;77.54;100102.22;5044633;28;20235;-72
2023/07/26 01:43:25;;;;;;;4.30;3.53;;;;;;;15.60;77.58;100098.41;5033335;28;20606;-73
2023/07/26 01:45:51;;;;;;;10.57;5.17;;;;;;;15.58;77.54;100098.03;5048283;28;20836;-71
2023/07/26 01:48:18;;;;;;;5.50;3.27;;;;;;;15.55;77.78;100104.84;5029762;28;20282;-71
2023/07/26 01:50:45;;;;;;;5.50;3.10;;;;;;;15.56;78.01;100103.72;5021530;28;20231;-73
2023/07/26 01:53:12;;;;;;;5.03;3.33;;;;;;;15.56;77.84;100114.34;5020699;28;20212;-73
2023/07/26 01:55:39;;;;;;;3.77;3.20;;;;;;;15.56;77.58;100105.59;5029541;28;20226;-71
2023/07/26 01:58:07;;;;;;;7.57;3.53;;;;;;;15.53;77.75;100112.41;5044938;28;20298;-72
2023/07/26 02:00:37;;;;;;;5.93;3.63;;;;;;;15.51;77.69;100117.38;5057980;28;20219;-72
2023/07/26 02:03:04;;;;;;;6.90;3.00;;;;;;;15.48;77.72;100123.41;5035545;28;20623;-72
2023/07/26 02:05:31;;;;;;;6.33;3.43;;;;;;;15.46;77.69;100119.59;5048974;28;20207;-71
2023/07/26 02:07:57;;;;;;;4.37;2.70;;;;;;;15.41;77.55;100125.25;5033935;28;20200;-73
2023/07/26 02:10:23;;;;;;;4.90;3.23;;;;;;;15.40;77.44;100129.81;5033785;28;20795;-72
2023/07/26 02:12:50;;;;;;;4.00;2.93;;;;;;;15.38;77.10;100136.66;5028301;28;20213;-73
2023/07/26 02:15:18;;;;;;;6.90;3.03;;;;;;;15.33;76.66;100129.00;5037161;28;20249;-73
2023/07/26 02:17:44;;;;;;;5.47;2.63;;;;;;;15.31;76.62;100136.56;5053559;28;20256;-73
2023/07/26 02:20:11;;;;;;;9.00;2.57;;;;;;;15.25;76.72;100130.81;5030246;28;20242;-72
2023/07/26 02:22:38;;;;;;;4.80;2.83;;;;;;;15.25;77.01;100141.44;5028314;28;20212;-72
2023/07/26 02:25:05;;;;;;;2.90;2.60;;;;;;;15.24;76.83;100147.13;5048470;28;20199;-72
2023/07/26 02:27:31;;;;;;;3.93;2.50;;;;;;;15.20;77.32;100155.06;5032164;28;20210;-73
2023/07/26 02:29:58;;;;;;;5.90;2.97;;;;;;;15.16;76.60;100154.25;5044067;28;20817;-72
2023/07/26 02:32:27;;;;;;;5.03;2.80;;;;;;;15.15;77.24;100154.63;5034648;28;20202;-72
2023/07/26 02:34:53;;;;;;;8.00;2.80;;;;;;;15.13;76.89;100160.34;5032846;28;20210;-72
2023/07/26 02:37:20;;;;;;;3.17;2.40;;;;;;;15.10;76.94;100171.69;5031367;28;20212;-73
2023/07/26 02:39:46;;;;;;;3.17;2.50;;;;;;;15.06;76.68;100170.13;5048701;28;20233;-73
2023/07/26 02:42:12;;;;;;;7.43;2.60;;;;;;;15.04;76.75;100175.81;5033953;28;20241;-73
2023/07/26 02:44:39;;;;;;;4.93;2.40;;;;;;;15.03;76.75;100176.16;5030227;28;20479;-73
2023/07/26 02:47:07;;;;;;;4.17;2.50;;;;;;;15.00;76.38;100185.63;5030383;28;20206;-74
2023/07/26 02:49:35;;;;;;;4.87;2.70;;;;;;;14.98;76.84;100185.25;5050126;28;20228;-72
2023/07/26 02:52:01;;;;;;;2.47;2.27;;;;;;;15.00;76.65;100187.53;5054640;28;20579;-73
2023/07/26 02:54:28;;;;;;;6.30;2.80;;;;;;;14.97;76.65;100185.59;5047108;28;20205;-72
2023/07/26 02:56:54;;;;;;;6.00;2.63;;;;;;;14.98;77.15;100187.91;5037015;28;20215;-70
2023/07/26 02:59:21;;;;;;;4.07;2.40;;;;;;;14.97;77.04;100201.56;5039685;28;20223;-72
2023/07/26 03:01:47;;;;;;;3.03;2.70;;;;;;;14.96;77.45;100200.03;5036749;28;20330;-71
2023/07/26 03:04:14;;;;;;;4.17;2.40;;;;;;;14.95;77.09;100207.22;5059319;28;20220;-70
2023/07/26 03:06:42;;;;;;;3.10;2.57;;;;;;;14.93;77.45;100217.47;5037632;28;20258;-71
2023/07/26 03:09:08;;;;;;;3.63;2.47;;;;;;;14.92;76.90;100215.16;5033200;28;20230;-72
2023/07/26 03:11:35;;;;;;;2.40;2.20;;;;;;;14.89;77.21;100221.97;5036999;28;20211;-72
2023/07/26 03:14:01;;;;;;;2.93;2.20;;;;;;;14.89;77.16;100227.28;5036480;28;20219;-73
2023/07/26 03:16:28;;;;;;;3.60;2.40;;;;;;;14.84;76.65;100224.97;5031880;28;20202;-72
2023/07/26 03:18:54;;;;;;;2.90;2.40;;;;;;;14.85;77.21;100225.72;5030617;28;20199;-73
2023/07/26 03:21:21;;;;;;;3.40;2.67;;;;;;;14.81;77.08;100223.00;5035181;28;20218;-72
2023/07/26 03:23:49;;;;;;;3.77;2.87;;;;;;;14.81;77.14;100222.25;5037889;28;20216;-72
2023/07/26 03:26:16;;;;;;;5.03;2.60;;;;;;;14.81;77.67;100227.56;5047035;28;20208;-74
2023/07/26 03:28:42;;;;;;;4.60;2.37;;;;;;;14.78;77.45;100237.03;5039218;28;20200;-71
2023/07/26 03:31:09;;;;;;;4.63;2.80;;;;;;;14.77;77.18;100235.50;5041408;28;20203;-71
2023/07/26 03:33:39;;;;;;;5.27;2.53;;;;;;;14.76;77.42;100241.94;5039867;28;20205;-73
2023/07/26 03:36:06;;;;;;;2.77;2.57;;;;;;;14.76;77.83;100238.53;5034677;28;20294;-71
2023/07/26 03:38:32;;;;;;;3.60;2.43;;;;;;;14.75;77.68;100234.34;5043090;28;20212;-71
2023/07/26 03:41:03;;;;;;;7.53;2.80;;;;;;;14.73;77.54;100233.91;5038373;28;20251;-72
2023/07/26 03:43:30;;;;;;;4.37;2.50;;;;;;;14.67;76.83;100238.81;5047442;28;20211;-71
2023/07/26 03:45:58;;;;;;;4.33;2.60;;;;;;;14.65;77.23;100240.28;5032733;28;21134;-72
2023/07/26 03:48:25;;;;;;;3.57;2.30;;;;;;;14.65;77.67;100245.59;5030645;28;20198;-72
2023/07/26 03:50:51;;;;;;;5.00;2.67;;;;;;;14.61;77.65;100245.56;5036582;28;20224;-73
2023/07/26 03:53:18;;;;;;;5.40;2.37;;;;;;;14.61;77.44;100255.41;5031091;28;20218;-74
2023/07/26 03:55:45;;;;;;;7.70;2.57;;;;;;;14.59;77.26;100249.69;5046305;28;20750;-72
2023/07/26 03:58:12;;;;;;;9.60;2.70;;;;;;;14.56;77.18;100250.41;5030279;28;20815;-73
2023/07/26 04:00:42;;;;;;;6.47;2.60;;;;;;;14.52;77.44;100250.38;5024110;28;20235;-73
2023/07/26 04:03:10;;;;;;;3.20;2.73;;;;;;;14.51;77.49;100256.81;5023971;28;20202;-74
2023/07/26 04:05:36;;;;;;;4.63;2.57;;;;;;;14.47;76.94;100258.63;5026052;28;20208;-73
2023/07/26 04:08:07;;;;;;;3.47;2.63;;;;;;;14.46;76.76;100259.00;5024841;28;20533;-73
2023/07/26 04:10:33;;;;;;;3.80;2.43;;;;;;;14.45;77.07;100260.91;5030999;28;20564;-73
2023/07/26 04:13:05;;;;;;;2.67;2.17;;;;;;;14.45;77.24;100266.22;5051339;28;20674;-72
2023/07/26 04:15:33;;;;;;;5.03;2.23;;;;;;;14.44;77.38;100256.69;5027737;28;20204;-73
2023/07/26 04:17:59;;;;;;;3.90;2.40;;;;;;;14.45;77.44;100265.44;5036269;28;20241;-72
2023/07/26 04:20:26;;;;;;;4.23;2.30;;;;;;;14.43;77.03;100262.38;5036710;28;20224;-73
2023/07/26 04:22:53;;;;;;;5.97;2.20;;;;;;;14.42;77.23;100271.44;5029675;28;20207;-73
2023/07/26 04:25:19;;;;;;;4.17;2.60;;;;;;;14.42;77.27;100271.44;5032846;28;20206;-73
2023/07/26 04:27:46;;;;;;;5.13;2.47;;;;;;;14.43;77.12;100273.75;5029597;28;20225;-72
2023/07/26 04:30:12;;;;;;;6.63;3.10;;;;;;;14.38;76.51;100274.06;5029710;28;20224;-72
2023/07/26 04:32:40;;;;;;;3.57;2.30;;;;;;;14.37;76.15;100277.06;5034703;28;20301;-72
2023/07/26 04:35:13;;;;;;;4.63;2.57;;;;;;;14.39;76.25;100286.22;5043318;28;20665;-73
2023/07/26 04:37:39;;;;;;;5.47;2.70;;;;;;;14.36;76.07;100278.19;5036455;28;20676;-71
2023/07/26 04:40:08;;;;;;;3.37;2.27;;;;;;;14.40;76.00;100281.69;5041263;28;20288;-72
2023/07/26 04:42:37;;;;;;;4.13;2.30;;;;;;;14.41;76.42;100283.22;5027743;28;20261;-73
2023/07/26 04:45:04;;;;;;;7.17;2.50;;;;;;;14.40;76.14;100293.09;5039244;28;20205;-73
2023/07/26 04:47:31;;;;;;;3.07;2.30;;;;;;;14.45;75.87;100292.00;5038306;28;20209;-72
2023/07/26 04:50:03;;;;;;;3.10;2.20;;;;;;;14.46;75.69;100299.63;5028468;28;20218;-72
2023/07/26 04:52:30;;;;;;;4.53;2.20;;;;;;;14.49;75.90;100298.13;5030885;28;20294;-73
2023/07/26 04:54:57;;;;;;;5.53;2.33;;;;;;;14.53;76.05;100306.91;5029283;28;20198;-73
2023/07/26 04:57:24;;;;;;;3.03;2.40;;;;;;;14.54;75.80;100306.56;5030556;28;20202;-72
2023/07/26 04:59:53;;;;;;;4.13;2.33;;;;;;;14.55;75.71;100307.34;5035915;28;20227;-71
2023/07/26 05:02:19;;;;;;;3.33;2.50;;;;;;;14.60;76.31;100318.41;5026708;28;20846;-73
2023/07/26 05:04:46;;;;;;;4.57;2.40;;;;;;;14.59;74.49;100310.81;5022269;28;20206;-73
2023/07/26 05:07:14;;;;;;;5.57;2.43;;;;;;;14.60;75.07;100315.75;5024596;28;20551;-73
2023/07/26 05:09:41;;;;;;;4.63;2.00;;;;;;;14.54;73.87;100317.19;5021236;28;20246;-73
2023/07/26 05:12:08;;;;;;;2.23;2.00;;;;;;;14.63;74.39;100319.59;5026080;28;20791;-73
2023/07/26 05:14:36;;;;;;;3.53;2.27;;;;;;;14.62;73.93;100324.16;5029217;28;20269;-73
2023/07/26 05:17:04;;;;;;;5.63;2.00;;;;;;;14.64;74.65;100321.13;5032469;28;20568;-70
2023/07/26 05:19:31;;;;;;;3.63;2.30;;;;;;;14.64;74.58;100324.53;5037054;28;20218;-73
2023/07/26 05:22:00;;;;;;;3.97;2.03;;;;;;;14.66;74.95;100330.28;5034446;28;20354;-72
2023/07/26 05:24:28;;;;;;;4.63;2.20;;;;;;;14.67;73.98;100336.34;5028221;28;20200;-73
2023/07/26 05:26:55;;;;;;;4.17;2.30;;;;;;;14.67;73.90;100339.78;5029481;28;20208;-72
2023/07/26 05:29:21;;;;;;;2.80;2.00;;;;;;;14.70;73.43;100341.72;5029775;28;20233;-73
2023/07/26 05:31:48;;;;;;;9.27;2.30;;;;;;;14.75;74.20;100344.06;5027449;28;20225;-73
2023/07/26 05:34:15;;;;;;;4.27;2.10;;;;;;;14.78;73.84;100347.91;5030772;28;20207;-72
2023/07/26 05:36:42;;;;;;;7.10;2.00;;;;;;;14.83;73.58;100347.59;5041934;28;20209;-74
2023/07/26 05:39:08;;;;;;;4.37;2.00;;;;;;;14.88;74.71;100355.25;5034266;28;20886;-72
2023/07/26 05:41:36;;;;;;;4.23;1.97;;;;;;;14.96;74.36;100355.00;5046682;28;20224;-72
2023/07/26 05:44:03;;;;;;;4.23;2.30;;;;;;;14.99;73.58;100353.50;5029743;28;20253;-73
2023/07/26 05:46:32;;;;;;;3.20;2.13;;;;;;;15.06;73.61;100364.25;5036091;28;20320;-73
2023/07/26 05:49:04;;;;;;;2.37;1.90;;;;;;;15.12;73.33;100355.59;5023339;28;20917;-73
2023/07/26 05:51:31;;;;;;;2.03;1.63;;;;;;;15.22;73.64;100354.22;5011684;23;20245;-71
2023/07/26 05:53:57;;;;;;;3.57;1.83;;;;;;;15.26;72.93;100355.78;4976138;28;20211;-70
2023/07/26 05:56:23;;;;;;;5.63;1.90;;;;;;;15.30;72.44;100366.44;4975099;28;20208;-70
2023/07/26 05:58:51;;;;;;;6.47;1.87;;;;;;;15.37;72.57;100366.59;4972530;28;20714;-70
2023/07/26 06:01:17;;;;;;;6.13;2.00;;;;;;;15.43;71.83;100365.13;4973091;28;20515;-69
2023/07/26 06:03:45;;;;;;;3.63;1.67;;;;;;;15.46;71.59;100367.84;4974214;28;20631;-70
2023/07/26 06:06:12;;;;;;;4.00;1.90;;;;;;;15.47;70.54;100379.25;4976008;28;20208;-71
2023/07/26 06:08:38;;;;;;;3.63;1.90;;;;;;;15.53;70.96;100375.88;4971509;28;20232;-71
2023/07/26 06:11:04;;;;;;;4.30;1.80;;;;;;;15.60;71.67;100376.00;4974406;28;20227;-70
2023/07/26 06:13:31;;;;;;;3.17;1.70;;;;;;;15.59;70.27;100376.34;4972893;28;20223;-70
2023/07/26 06:15:58;;;;;;;3.40;1.80;;;;;;;15.58;69.95;100378.22;4974500;28;20215;-70
2023/07/26 06:18:25;;;;;;;4.57;1.80;;;;;;;15.65;70.35;100372.22;4972591;28;20238;-70
2023/07/26 06:20:51;;;;;;;2.67;1.70;;;;;;;15.66;70.54;100379.84;4975314;28;20208;-70
2023/07/26 06:23:17;;;;;;;3.67;1.87;;;;;;;15.71;70.46;100378.75;4970818;28;20238;-70
2023/07/26 06:25:44;;;;;;;6.43;1.93;;;;;;;15.72;70.48;100386.38;4973079;28;20660;-70
2023/07/26 06:28:10;;;;;;;4.07;2.13;;;;;;;15.77;70.68;100379.97;4972748;28;20228;-70
2023/07/26 06:30:37;;;;;;;3.10;1.63;;;;;;;15.84;70.63;100385.38;4973459;28;20590;-70
2023/07/26 06:33:04;;;;;;;5.13;2.87;;;;;;;15.90;70.85;100389.25;4974912;28;20212;-70
2023/07/26 06:35:31;;;;;;;4.80;1.77;;;;;;;15.97;70.40;100391.97;4974397;28;20667;-71
2023/07/26 06:37:57;;;;;;;7.33;1.70;;;;;;;16.01;69.85;100398.88;4973573;28;20547;-71
2023/07/26 06:40:23;;;;;;;5.13;1.97;;;;;;;16.07;70.12;100401.97;4974757;28;20222;-71
2023/07/26 06:42:50;;;;;;;4.40;1.70;;;;;;;16.11;69.74;100403.53;4971416;28;20230;-71
2023/07/26 06:45:16;;;;;;;2.80;1.67;;;;;;;16.16;69.92;100397.09;4975176;28;20212;-71
2023/07/26 06:47:43;;;;;;;3.10;1.80;;;;;;;16.19;69.40;100402.47;4974736;28;20257;-71
2023/07/26 06:50:11;;;;;;;4.47;1.57;;;;;;;16.25;69.03;100402.91;4977423;28;20467;-71
2023/07/26 06:52:37;;;;;;;4.67;1.90;;;;;;;16.31;69.53;100396.09;4974841;28;20449;-71
2023/07/26 06:55:04;;;;;;;2.53;1.70;;;;;;;16.35;70.12;100403.00;4977399;28;20433;-72
2023/07/26 06:57:31;;;;;;;2.63;1.80;;;;;;;16.38;69.02;100406.81;4978743;28;20249;-71
2023/07/26 06:59:57;;;;;;;3.27;1.60;;;;;;;16.38;68.26;100407.59;4978756;28;20235;-71
2023/07/26 07:02:24;;;;;;;3.63;1.87;;;;;;;16.47;68.84;100432.09;4976408;28;20232;-71
2023/07/26 07:04:50;;;;;;;2.90;1.70;;;;;;;16.56;69.29;100416.53;4977282;28;20288;-72
2023/07/26 07:07:18;;;;;;;2.43;1.47;;;;;;;16.66;69.43;100423.09;4974439;28;20243;-71
2023/07/26 07:09:44;;;;;;;4.80;1.60;;;;;;;16.74;68.72;100427.34;4976910;28;20300;-71
2023/07/26 07:12:10;;;;;;;2.90;1.77;;;;;;;16.74;66.22;100422.78;4976090;28;20700;-71
2023/07/26 07:14:37;;;;;;;5.03;1.50;;;;;;;16.90;68.63;100419.81;4976130;28;21403;-71
2023/07/26 07:17:03;;;;;;;2.10;1.40;;;;;;;16.98;68.41;100416.09;4977636;28;20345;-71
2023/07/26 07:19:30;;;;;;;3.07;1.63;;;;;;;17.04;66.90;100428.72;4976775;28;20237;-71
2023/07/26 07:21:56;;;;;;;2.27;1.60;;;;;;;17.15;66.30;100428.75;4975116;28;20231;-71
2023/07/26 07:24:24;;;;;;;4.67;1.50;;;;;;;17.20;65.86;100425.75;4977166;28;20226;-71
2023/07/26 07:26:50;;;;;;;3.33;1.30;;;;;;;17.26;67.47;100417.00;4974191;28;20204;-71
2023/07/26 07:29:17;;;;;;;3.90;1.67;;;;;;;17.33;67.33;100427.72;4976618;28;20234;-70
2023/07/26 07:31:44;;;;;;;2.67;1.30;;;;;;;17.41;67.14;100426.66;4974488;28;20261;-71
2023/07/26 07:34:10;;;;;;;5.17;1.57;;;;;;;17.49;65.64;100428.19;4974540;28;20840;-71
2023/07/26 07:36:36;;;;;;;5.47;1.70;;;;;;;17.56;64.79;100428.25;4978613;28;20588;-70
2023/07/26 07:39:07;;;;;;;6.10;2.37;;;;;;;17.58;64.05;100431.31;4977556;28;20223;-71
2023/07/26 07:41:35;;;;;;;5.13;1.67;;;;;;;17.68;66.49;100429.81;4973269;28;20299;-70
2023/07/26 07:44:02;;;;;;;4.53;1.60;;;;;;;17.74;64.64;100423.72;4975344;28;20209;-72
2023/07/26 07:46:29;;;;;;;4.70;1.30;;;;;;;17.85;64.40;100429.88;4975249;28;20976;-70
2023/07/26 07:48:55;;;;;;;2.37;1.53;;;;;;;17.95;65.11;100439.81;4976172;28;20337;-70
2023/07/26 07:51:22;;;;;;;4.77;1.63;;;;;;;17.99;63.24;100437.94;4977324;28;20239;-71
2023/07/26 07:53:48;;;;;;;2.27;1.40;;;;;;;18.13;65.29;100440.66;4975918;28;20689;-70
2023/07/26 07:56:14;;;;;;;3.10;1.83;;;;;;;18.25;64.08;100439.50;4974980;28;20247;-71
2023/07/26 07:58:42;;;;;;;3.70;2.00;;;;;;;18.34;63.17;100432.69;4975097;28;20223;-71
2023/07/26 08:01:08;;;;;;;3.07;1.33;;;;;;;18.47;62.72;100441.09;4975130;28;20203;-71
2023/07/26 08:03:35;;;;;;;3.90;1.40;;;;;;;18.58;62.88;100441.88;4993848;28;20232;-70
2023/07/26 08:06:01;;;;;;;4.60;1.60;;;;;;;18.62;61.07;100446.06;4973107;28;20219;-71
2023/07/26 08:08:28;;;;;;;8.27;1.37;;;;;;;18.69;60.93;100439.97;4972007;28;20238;-71
2023/07/26 08:10:54;;;;;;;2.87;1.70;;;;;;;18.79;61.81;100445.28;4972296;28;21879;-72
2023/07/26 08:13:20;;;;;;;3.53;1.53;;;;;;;18.84;60.27;100439.56;4972151;28;20266;-71
2023/07/26 08:15:48;;;;;;;3.23;1.43;;;;;;;18.88;61.29;100439.56;4975347;28;20204;-71
2023/07/26 08:18:14;;;;;;;2.87;1.67;;;;;;;18.91;59.26;100444.91;4976050;28;20228;-70
2023/07/26 08:20:41;;;;;;;2.63;1.47;;;;;;;19.02;61.94;100458.28;4970770;28;20343;-72
2023/07/26 08:23:07;;;;;;;2.00;1.27;;;;;;;18.99;58.62;100453.72;4973604;28;20235;-71
2023/07/26 08:25:33;;;;;;;4.37;1.60;;;;;;;19.11;60.24;100448.72;4975616;28;20817;-71
2023/07/26 08:28:00;;;;;;;1.80;1.37;;;;;;;19.18;61.12;100453.28;4973112;28;20235;-70
2023/07/26 08:30:26;;;;;;;2.93;1.27;;;;;;;19.26;56.68;100452.16;4977608;28;20225;-71
2023/07/26 08:32:54;;;;;;;3.00;1.60;;;;;;;19.34;57.38;100450.97;4974529;28;20234;-72
2023/07/26 08:35:20;;;;;;;4.47;1.20;;;;;;;19.37;57.69;100450.22;4990919;28;20216;-72
2023/07/26 08:37:47;;;;;;;3.47;1.63;;;;;;;19.48;58.00;100453.63;4975296;28;20523;-71
2023/07/26 08:40:14;;;;;;;3.30;1.33;;;;;;;19.56;56.99;100450.53;4975878;28;21005;-71
2023/07/26 08:42:41;;;;;;;1.43;1.20;;;;;;;19.59;56.57;100449.75;4973683;28;20223;-71
2023/07/26 08:45:08;;;;;;;2.90;1.27;;;;;;;19.73;60.77;100456.97;4974294;28;20223;-71
2023/07/26 08:47:35;;;;;;;4.80;1.60;;;;;;;19.90;54.45;100446.19;4974252;28;20326;-70
2023/07/26 08:50:04;;;;;;;4.57;1.40;;;;;;;20.02;57.98;100442.28;4974798;28;20519;-70
2023/07/26 08:52:31;;;;;;;1.60;0.93;;;;;;;20.01;54.07;100452.25;4973542;28;20212;-71
2023/07/26 08:54:57;;;;;;;2.77;1.40;;;;;;;20.06;54.24;100453.75;4975464;28;20211;-71
2023/07/26 08:57:24;;;;;;;2.83;1.20;;;;;;;20.06;54.48;100461.78;4975985;28;20302;-71
2023/07/26 08:59:51;;;;;;;2.97;1.03;;;;;;;19.89;52.35;100462.66;4975308;28;20594;-71
2023/07/26 09:02:20;;;;;;;4.00;1.40;;;;;;;19.86;52.37;100448.09;4972699;28;20216;-71
2023/07/26 09:04:47;;;;;;;2.73;1.50;;;;;;;19.90;52.93;100456.91;4973876;28;20790;-70
2023/07/26 09:07:15;;;;;;;2.90;1.20;;;;;;;19.92;52.92;100456.50;4973393;28;20242;-71
2023/07/26 09:09:42;;;;;;;3.37;1.40;;;;;;;20.00;57.83;100452.63;4976063;28;20212;-71
2023/07/26 09:12:08;;;;;;;2.47;1.17;;;;;;;20.05;54.15;100447.63;4972735;28;20214;-71
2023/07/26 09:14:35;;;;;;;1.90;1.13;;;;;;;20.25;58.75;100450.59;4973987;28;20678;-72
2023/07/26 09:17:03;;;;;;;3.67;1.43;;;;;;;20.43;54.01;100445.91;4973758;28;20228;-70
2023/07/26 09:19:31;;;;;;;2.10;1.00;;;;;;;20.61;52.22;100451.88;4972491;28;20212;-71
2023/07/26 09:21:59;;;;;;;1.87;1.10;;;;;;;20.78;50.39;100453.66;4970476;28;20207;-71
2023/07/26 09:24:33;;;;;;;1.90;1.20;;;;;;;20.92;49.68;100445.50;4977517;28;20204;-71
2023/07/26 09:27:04;;;;;;;1.43;0.90;;;;;;;21.14;54.06;100444.13;4972944;28;21435;-71
2023/07/26 09:29:31;;;;;;;3.60;1.20;;;;;;;21.35;49.15;100460.81;4989526;28;20410;-71
2023/07/26 09:31:57;;;;;;;2.33;1.07;;;;;;;21.53;49.42;100447.91;4974116;28;20829;-71
2023/07/26 09:34:23;;;;;;;2.43;1.03;;;;;;;21.58;48.95;100452.84;4973731;28;20210;-71
2023/07/26 09:36:52;;;;;;;1.10;0.80;;;;;;;21.46;46.47;100447.22;4974364;28;20222;-70
2023/07/26 09:39:19;;;;;;;1.53;0.83;;;;;;;21.42;47.39;100447.28;4974476;28;20208;-70
2023/07/26 09:41:49;;;;;;;1.20;0.80;;;;;;;21.53;47.84;100444.47;4974458;28;20207;-72
2023/07/26 09:44:17;;;;;;;1.57;1.10;;;;;;;21.58;50.98;100450.16;4986976;28;20273;-70
2023/07/26 09:46:48;;;;;;;1.03;0.87;;;;;;;21.61;47.13;100446.69;4974091;28;20584;-71
2023/07/26 09:49:15;;;;;;;1.13;0.87;;;;;;;21.64;46.08;100440.53;4989202;28;20212;-72
2023/07/26 09:51:42;;;;;;;3.13;0.80;;;;;;;21.64;47.41;100439.75;4976335;28;20690;-71
2023/07/26 09:54:09;;;;;;;1.07;0.80;;;;;;;21.70;50.61;100436.25;4972751;28;20208;-71
2023/07/26 09:56:36;;;;;;;1.97;1.00;;;;;;;21.73;47.34;100435.41;4973169;28;21375;-71
2023/07/26 09:59:08;;;;;;;1.40;1.00;;;;;;;21.73;46.67;100438.09;4974312;28;20232;-72
2023/07/26 10:01:39;;;;;;;2.80;1.00;;;;;;;21.74;45.70;100434.25;4973253;28;20381;-72
2023/07/26 10:04:11;;;;;;;1.60;0.60;;;;;;;21.64;50.53;100437.06;4970865;28;20227;-71
2023/07/26 10:06:38;;;;;;;1.27;0.97;;;;;;;21.47;46.17;100433.41;4976659;28;20208;-72
2023/07/26 10:09:05;;;;;;;1.10;1.00;;;;;;;21.25;47.14;100428.66;4972388;28;21659;-72
2023/07/26 10:11:32;;;;;;;0.97;0.80;;;;;;;21.05;45.67;100430.44;4974321;28;20212;-72
2023/07/26 10:13:59;;;;;;;2.33;1.00;;;;;;;20.97;45.80;100424.38;4970581;28;20196;-70
2023/07/26 10:16:27;;;;;;;1.63;1.10;;;;;;;20.92;49.23;100434.78;4975707;28;20411;-72
2023/07/26 10:18:57;;;;;;;1.30;0.90;;;;;;;20.92;54.92;100430.19;4976854;28;20227;-72
2023/07/26 10:21:25;;;;;;;1.37;1.00;;;;;;;20.97;47.21;100432.44;4979251;28;20752;-72
2023/07/26 10:23:52;;;;;;;2.43;1.60;;;;;;;21.17;49.10;100425.28;4978312;28;20239;-72
2023/07/26 10:26:19;;;;;;;2.97;1.10;;;;;;;21.29;48.32;100422.13;4978669;28;20207;-72
2023/07/26 10:28:46;;;;;;;2.00;0.90;;;;;;;21.38;48.16;100418.94;4979266;28;21034;-72
2023/07/26 10:31:13;;;;;;;2.13;1.10;;;;;;;21.55;48.55;100426.03;4977107;28;20211;-72
2023/07/26 10:33:47;;;;;;;1.20;0.93;;;;;;;21.66;46.26;100426.66;4997017;28;20219;-72
2023/07/26 10:36:15;;;;;;;2.60;0.80;;;;;;;21.57;44.07;100426.41;4978123;28;20208;-72
2023/07/26 10:38:47;;;;;;;2.47;1.03;;;;;;;21.60;45.66;100428.28;4980096;28;20703;-72
2023/07/26 10:41:27;;;;;;;1.50;1.10;;;;;;;21.58;46.86;100430.59;4975374;28;20807;-72
2023/07/26 10:44:05;;;;;;;0.87;0.80;;;;;;;21.35;49.06;100427.78;4978368;28;20230;-72
2023/07/26 10:46:47;;;;;;;1.87;1.10;;;;;;;21.21;47.07;100423.34;4979008;28;20277;-72
2023/07/26 10:49:20;;;;;;;2.47;1.00;;;;;;;21.25;54.63;100418.69;4986448;28;20399;-72
2023/07/26 10:51:56;;;;;;;3.30;1.00;;;;;;;21.19;45.84;100414.16;4981439;28;20899;-72
2023/07/26 10:54:34;;;;;;;0.80;0.80;;;;;;;21.34;48.19;100419.00;4978310;28;20211;-72
2023/07/26 10:57:21;;;;;;;1.63;1.20;;;;;;;21.46;47.96;100413.09;4977002;28;20704;-71
2023/07/26 10:59:55;;;;;;;1.00;0.93;;;;;;;21.58;44.06;100406.41;4995606;28;20212;-70
2023/07/26 11:02:44;;;;;;;3.57;1.00;;;;;;;21.62;44.46;100415.22;4977100;28;20223;-70
2023/07/26 11:05:15;;;;;;;0.90;0.70;;;;;;;21.53;43.93;100412.25;4972025;28;21701;-71
2023/07/26 11:07:59;;;;;;;3.10;1.03;;;;;;;21.74;44.80;100393.19;4979175;28;20224;-71
2023/07/26 11:10:29;;;;;;;2.17;1.10;;;;;;;21.72;42.57;100398.97;4976982;28;20294;-71
2023/07/26 11:13:07;;;;;;;1.10;0.80;;;;;;;21.86;42.94;100396.09;4978440;28;20582;-72
2023/07/26 11:15:36;;;;;;;1.07;0.80;;;;;;;21.86;43.46;100398.00;4977598;28;21569;-71
2023/07/26 11:18:02;;;;;;;2.07;1.10;;;;;;;21.86;42.33;100396.09;4975796;28;20270;-72
2023/07/26 11:20:30;;;;;;;1.63;0.90;;;;;;;21.86;42.16;100395.31;4977329;28;20682;-72
2023/07/26 11:22:56;;;;;;;1.03;0.90;;;;;;;21.90;47.18;100396.81;4977682;28;20215;-71
2023/07/26 11:25:23;;;;;;;2.60;1.00;;;;;;;21.81;43.24;100393.09;4977589;28;20343;-72
2023/07/26 11:27:50;;;;;;;1.13;0.70;;;;;;;21.80;44.00;100391.56;4978748;28;20502;-72